Time;durP1;ratioP1;P1;durP2;ratioP2;P2;SDS_P1;SDS_P2;PMS_P1;PMS_P2;Temp;Humidity;BMP_temperature;BMP_pressure;BME280_temperature;BME280_humidity;BME280_pressure;Samples;Min_cycle;Max_cycle;Signal;HPM_P1;HPM_P2
2021/11/02 00:00:36;;;;;;;104.75;37.55;;;;;;;4.93;76.34;100388.44;5053052;28;20033;-56
2021/11/02 00:03:02;;;;;;;79.43;36.72;;;;;;;4.97;76.63;100395.31;5070889;28;20436;-55
2021/11/02 00:05:29;;;;;;;95.35;37.25;;;;;;;5.01;76.49;100388.91;5070814;28;20028;-55
2021/11/02 00:07:54;;;;;;;89.47;36.92;;;;;;;4.96;76.53;100376.81;5071072;28;20098;-55
2021/11/02 00:10:20;;;;;;;102.20;37.97;;;;;;;4.83;76.39;100350.03;5070288;28;20033;-52
2021/11/02 00:12:46;;;;;;;91.88;36.35;;;;;;;4.96;76.80;100371.50;5070693;28;20388;-50
2021/11/02 00:15:12;;;;;;;89.15;36.88;;;;;;;5.16;76.28;100397.06;5071282;28;20044;-49
2021/11/02 00:17:39;;;;;;;80.88;37.38;;;;;;;5.16;76.05;100391.75;5070732;28;20075;-51
2021/11/02 00:20:08;;;;;;;81.13;33.80;;;;;;;5.22;76.38;100394.09;5070358;28;20036;-52
2021/11/02 00:22:35;;;;;;;72.03;34.25;;;;;;;5.17;75.96;100391.66;5070532;28;20476;-56
2021/11/02 00:25:06;;;;;;;95.78;33.80;;;;;;;5.16;76.12;100381.13;5071376;28;20035;-53
2021/11/02 00:27:38;;;;;;;96.05;33.00;;;;;;;5.20;76.04;100390.66;5071042;28;20680;-57
2021/11/02 00:30:08;;;;;;;82.05;32.67;;;;;;;5.15;76.16;100393.53;5070609;28;20135;-52
2021/11/02 00:32:34;;;;;;;72.95;33.13;;;;;;;5.12;75.87;100390.19;5070696;28;20032;-55
2021/11/02 00:34:59;;;;;;;75.40;32.55;;;;;;;5.05;76.14;100371.06;5053004;28;20025;-55
2021/11/02 00:37:26;;;;;;;59.17;31.70;;;;;;;5.13;76.33;100378.63;5070964;28;20028;-53
2021/11/02 00:39:53;;;;;;;71.97;33.22;;;;;;;5.10;76.08;100381.44;5070219;28;20033;-54
2021/11/02 00:42:19;;;;;;;73.50;32.67;;;;;;;5.14;76.13;100369.75;5085373;28;20032;-56
2021/11/02 00:44:51;;;;;;;78.40;31.90;;;;;;;5.19;76.09;100370.38;5090711;28;20036;-54
2021/11/02 00:47:22;;;;;;;97.30;32.53;;;;;;;5.24;75.77;100373.66;5090584;28;20028;-53
2021/11/02 00:49:47;;;;;;;90.68;33.65;;;;;;;5.25;75.71;100371.88;5091242;28;20031;-58
2021/11/02 00:52:13;;;;;;;97.13;33.17;;;;;;;5.28;75.51;100366.41;5092424;28;20024;-54
2021/11/02 00:54:38;;;;;;;74.22;32.42;;;;;;;5.28;75.78;100369.91;5075318;28;20465;-54
2021/11/02 00:57:04;;;;;;;71.13;32.78;;;;;;;5.27;76.01;100372.66;5074556;28;20400;-55
2021/11/02 00:59:30;;;;;;;66.38;32.83;;;;;;;5.28;75.94;100375.22;5073826;28;20377;-52
2021/11/02 01:01:55;;;;;;;73.53;33.03;;;;;;;5.28;75.89;100374.38;5074126;28;20086;-55
2021/11/02 01:04:21;;;;;;;85.88;33.13;;;;;;;5.30;75.76;100369.84;5094312;28;20028;-54
2021/11/02 01:06:46;;;;;;;70.38;33.97;;;;;;;5.32;75.66;100374.16;5094059;28;20028;-51
2021/11/02 01:09:12;;;;;;;104.57;34.03;;;;;;;5.37;75.73;100370.41;5093554;28;20028;-54
2021/11/02 01:11:38;;;;;;;96.78;33.70;;;;;;;5.37;75.60;100365.09;5093866;28;20492;-53
2021/11/02 01:14:04;;;;;;;208.50;35.03;;;;;;;5.37;75.23;100373.06;5093631;28;20066;-54
2021/11/02 01:16:30;;;;;;;88.03;33.28;;;;;;;5.32;75.37;100379.47;5074964;28;20040;-56
2021/11/02 01:18:55;;;;;;;69.80;33.33;;;;;;;5.31;75.19;100377.75;5093199;28;20039;-55
2021/11/02 01:21:22;;;;;;;79.05;34.42;;;;;;;5.26;74.86;100377.09;5093032;28;20434;-56
2021/11/02 01:23:48;;;;;;;112.55;35.05;;;;;;;4.96;75.15;100343.16;5093016;28;20111;-56
2021/11/02 01:26:14;;;;;;;78.97;32.97;;;;;;;5.12;75.29;100379.56;5093284;28;20120;-57
2021/11/02 01:28:40;;;;;;;71.97;32.03;;;;;;;5.03;75.68;100370.25;5094023;28;20028;-56
2021/11/02 01:31:06;;;;;;;113.13;33.85;;;;;;;5.07;75.65;100378.94;5093997;28;20036;-55
2021/11/02 01:33:32;;;;;;;77.60;32.67;;;;;;;5.07;75.98;100389.56;5093623;28;20035;-54
2021/11/02 01:35:58;;;;;;;69.10;33.08;;;;;;;5.09;75.61;100382.38;5094050;28;20418;-53
2021/11/02 01:38:23;;;;;;;69.28;32.60;;;;;;;5.10;75.76;100384.94;5093793;28;20034;-55
2021/11/02 01:40:51;;;;;;;74.53;33.15;;;;;;;5.08;75.90;100376.19;5093406;28;20032;-56
2021/11/02 01:43:18;;;;;;;85.35;33.40;;;;;;;5.14;74.32;100385.66;5093555;28;20024;-55
2021/11/02 01:45:44;;;;;;;62.28;33.58;;;;;;;5.12;75.00;100387.53;5094055;28;20028;-56
2021/11/02 01:48:18;;;;;;;64.82;32.17;;;;;;;5.16;75.78;100391.75;5093978;28;20031;-57
2021/11/02 01:50:45;;;;;;;77.43;35.00;;;;;;;5.11;74.89;100385.81;5093613;28;20027;-53
2021/11/02 01:53:11;;;;;;;78.55;35.17;;;;;;;5.08;74.96;100391.28;5094297;28;20467;-56
2021/11/02 01:55:37;;;;;;;72.72;33.35;;;;;;;5.02;75.19;100371.19;5093488;28;20024;-51
2021/11/02 01:58:03;;;;;;;85.80;35.33;;;;;;;4.93;75.34;100348.63;5077284;28;20507;-55
2021/11/02 02:00:29;;;;;;;66.38;33.88;;;;;;;5.09;75.09;100377.06;5073132;28;20043;-55
2021/11/02 02:03:15;;;;;;;70.80;35.25;;;;;;;5.13;74.98;100384.78;5072829;28;20035;-55
2021/11/02 02:05:55;;;;;;;67.13;35.23;;;;;;;5.19;74.68;100382.81;5072700;28;20048;-55
2021/11/02 02:08:52;;;;;;;66.55;34.42;;;;;;;5.20;74.85;100382.72;5072834;28;20272;-53
2021/11/02 02:11:29;;;;;;;64.88;34.88;;;;;;;5.12;75.13;100388.38;5073492;28;20033;-53
2021/11/02 02:14:14;;;;;;;72.55;35.63;;;;;;;5.13;75.21;100378.63;5073043;28;20045;-55
2021/11/02 02:16:43;;;;;;;70.20;36.95;;;;;;;5.13;75.34;100381.28;5073248;28;20075;-54
2021/11/02 02:19:45;;;;;;;77.93;37.70;;;;;;;5.19;75.40;100381.00;5073415;28;20033;-52
2021/11/02 02:22:47;;;;;;;74.47;37.65;;;;;;;5.18;74.96;100376.63;5055157;28;20028;-54
2021/11/02 02:25:21;;;;;;;79.10;38.50;;;;;;;5.13;74.75;100383.94;5072300;28;20024;-53
2021/11/02 02:28:10;;;;;;;78.82;37.72;;;;;;;5.15;74.84;100377.59;5072661;28;20060;-54
2021/11/02 02:30:49;;;;;;;76.70;37.50;;;;;;;5.13;74.89;100399.88;5072883;28;20410;-53
2021/11/02 02:33:16;;;;;;;79.97;38.15;;;;;;;5.06;74.98;100388.69;5072981;28;20101;-53
2021/11/02 02:35:45;;;;;;;89.03;39.30;;;;;;;5.03;74.73;100376.41;5072456;28;20028;-54
2021/11/02 02:38:11;;;;;;;84.47;40.45;;;;;;;5.02;74.49;100382.66;5072567;28;20123;-53
2021/11/02 02:40:40;;;;;;;85.47;39.25;;;;;;;5.02;74.78;100390.63;5073033;28;20052;-55
2021/11/02 02:43:07;;;;;;;81.70;39.67;;;;;;;5.01;74.91;100388.06;5072494;28;20035;-57
2021/11/02 02:45:34;;;;;;;83.03;37.67;;;;;;;5.02;74.69;100387.13;5072298;28;20512;-56
2021/11/02 02:48:03;;;;;;;88.65;39.97;;;;;;;4.99;74.34;100382.81;5072096;28;20039;-55
2021/11/02 02:50:29;;;;;;;88.80;39.80;;;;;;;4.97;74.03;100384.69;5054716;28;20035;-56
2021/11/02 02:52:56;;;;;;;95.05;40.60;;;;;;;4.93;74.37;100387.56;5072397;28;20075;-56
2021/11/02 02:55:22;;;;;;;96.82;39.92;;;;;;;4.82;74.70;100378.31;5071851;28;20528;-57
2021/11/02 02:57:49;;;;;;;92.05;40.55;;;;;;;4.88;75.16;100385.13;5071927;28;20036;-57
2021/11/02 03:00:16;;;;;;;123.68;39.30;;;;;;;4.94;74.42;100390.16;5072257;28;20024;-54
2021/11/02 03:02:43;;;;;;;91.57;38.53;;;;;;;4.91;74.11;100385.00;5070366;28;20079;-52
2021/11/02 03:05:12;;;;;;;92.28;37.97;;;;;;;4.92;74.38;100378.75;5072083;28;20043;-57
2021/11/02 03:07:38;;;;;;;110.35;36.75;;;;;;;4.90;73.92;100383.28;5071738;28;20469;-58
2021/11/02 03:10:07;;;;;;;119.78;36.95;;;;;;;4.89;74.40;100392.16;5071721;28;20021;-52
2021/11/02 03:12:36;;;;;;;89.07;36.75;;;;;;;4.86;74.42;100381.69;5071614;28;20036;-55
2021/11/02 03:18:10;;;;;;;86.63;37.33;;;;;;;4.97;74.69;100389.16;5071729;28;20029;-54
2021/11/02 03:58:35;;;;;;;75.35;34.97;;;;;;;4.68;74.44;100383.41;5071196;28;20024;-54
2021/11/02 04:01:20;;;;;;;83.38;37.50;;;;;;;4.74;74.24;100397.25;5069300;28;20025;-55
2021/11/02 05:46:37;;;;;;;104.63;45.67;;;;;;;5.19;73.92;100401.38;5077208;28;20051;-57
2021/11/02 05:53:36;;;;;;;95.30;42.80;;;;;;;5.42;71.69;100417.00;5073612;28;20028;-52
2021/11/02 05:58:33;;;;;;;101.13;44.33;;;;;;;5.46;71.75;100404.44;5073273;28;20083;-54
2021/11/02 06:03:36;;;;;;;101.38;43.90;;;;;;;5.53;70.91;100413.81;5073128;28;20068;-53
2021/11/02 06:08:50;;;;;;;98.43;44.90;;;;;;;5.52;70.39;100405.94;5072768;28;20077;-55
2021/11/02 06:28:26;;;;;;;91.75;43.03;;;;;;;5.69;69.54;100424.56;5062303;28;20032;-58
2021/11/02 06:31:04;;;;;;;95.28;43.28;;;;;;;5.66;69.88;100427.34;5061413;28;20017;-58
2021/11/02 06:33:42;;;;;;;91.28;43.85;;;;;;;5.64;68.93;100428.38;5062133;28;20036;-53
2021/11/02 06:49:50;;;;;;;89.85;42.00;;;;;;;6.06;68.92;100429.81;5072399;28;20024;-55
2021/11/02 08:47:04;;;;;;;109.57;48.78;;;;;;;7.72;60.80;100406.50;5070882;28;20073;-55
2021/11/02 08:49:30;;;;;;;114.47;49.75;;;;;;;7.82;61.00;100444.97;5052363;28;20032;-57
2021/11/02 08:51:57;;;;;;;115.50;48.90;;;;;;;7.66;61.14;100447.69;5070164;28;20043;-56
2021/11/02 08:54:24;;;;;;;102.70;47.70;;;;;;;7.49;61.94;100451.34;5069935;28;20158;-63
2021/11/02 08:56:52;;;;;;;116.45;49.92;;;;;;;7.39;62.09;100434.16;5070117;28;20528;-57
2021/11/02 08:59:18;;;;;;;106.53;49.88;;;;;;;7.36;62.37;100451.19;5052483;28;20364;-62
2021/11/02 09:01:52;;;;;;;113.70;49.72;;;;;;;7.32;62.53;100438.97;5069995;28;20067;-63
2021/11/02 09:04:19;;;;;;;111.97;50.13;;;;;;;7.43;62.07;100446.34;5035315;28;20024;-61
2021/11/02 09:06:49;;;;;;;113.15;49.55;;;;;;;7.68;62.71;100444.91;5084815;28;20036;-61
2021/11/02 09:09:17;;;;;;;117.28;50.67;;;;;;;7.90;61.00;100448.03;5090384;28;20024;-62
2021/11/02 09:11:43;;;;;;;114.20;49.25;;;;;;;7.96;60.77;100438.81;5091037;28;20392;-61
2021/11/02 09:14:12;;;;;;;108.13;48.45;;;;;;;8.03;60.17;100444.66;5094550;28;20470;-64
2021/11/02 09:16:40;;;;;;;98.60;46.67;;;;;;;7.80;61.03;100436.22;5075229;28;20079;-63
2021/11/02 09:19:12;;;;;;;109.72;50.20;;;;;;;7.75;61.11;100460.47;5076192;28;20519;-65
2021/11/02 09:21:37;;;;;;;112.85;51.50;;;;;;;7.55;61.39;100452.75;5093480;28;20058;-64
2021/11/02 09:24:03;;;;;;;108.45;47.25;;;;;;;7.30;61.82;100436.41;5089236;28;20543;-64
2021/11/02 09:26:31;;;;;;;102.85;49.40;;;;;;;7.06;62.82;100437.78;5075791;28;20032;-65
2021/11/02 09:29:01;;;;;;;106.22;50.05;;;;;;;7.00;63.45;100439.00;5075763;28;20032;-64
2021/11/02 09:31:31;;;;;;;111.88;48.95;;;;;;;6.88;63.73;100451.19;5080438;28;20174;-66
2021/11/02 09:33:58;;;;;;;120.90;52.42;;;;;;;6.81;63.61;100449.81;5073870;28;20040;-65
2021/11/02 09:36:38;;;;;;;107.32;49.70;;;;;;;6.81;64.42;100449.81;5073155;28;20166;-60
2021/11/02 09:39:05;;;;;;;112.05;48.70;;;;;;;6.82;63.73;100457.69;5073226;28;20131;-59
2021/11/02 09:42:08;;;;;;;112.05;50.03;;;;;;;6.95;63.92;100463.19;5054644;28;20055;-61
2021/11/02 09:44:36;;;;;;;108.43;49.50;;;;;;;6.94;63.00;100453.50;5052951;28;20465;-62
2021/11/02 09:47:33;;;;;;;111.28;52.70;;;;;;;6.99;62.86;100459.44;5052710;28;20086;-57
2021/11/02 09:50:20;;;;;;;99.05;48.30;;;;;;;6.80;63.82;100451.59;5053208;28;20025;-60
2021/11/02 09:52:56;;;;;;;104.47;48.42;;;;;;;7.01;63.42;100462.88;5052140;28;20416;-60
2021/11/02 09:55:39;;;;;;;;;;;;;;;7.40;62.77;100457.19;5053254;28;20040;-62
2021/11/02 09:58:21;;;;;;;101.72;49.10;;;;;;;7.33;61.64;100457.53;5052965;28;20280;-61
2021/11/02 10:01:15;;;;;;;103.15;47.38;;;;;;;7.06;61.98;100469.75;5053323;28;20057;-60
2021/11/02 10:03:59;;;;;;;106.82;50.53;;;;;;;6.76;62.64;100447.38;5061758;28;20033;-62
2021/11/02 10:06:44;;;;;;;100.85;47.72;;;;;;;6.39;64.14;100444.91;5071764;28;20040;-65
2021/11/02 10:09:25;;;;;;;98.43;47.42;;;;;;;6.28;64.58;100441.97;5072797;28;20032;-63
2021/11/02 10:12:02;;;;;;;98.75;47.35;;;;;;;6.21;64.24;100443.22;5073442;28;20040;-66
2021/11/02 10:15:01;;;;;;;92.47;45.67;;;;;;;5.95;66.17;100443.63;5072890;28;20028;-65
2021/11/02 10:17:38;;;;;;;87.43;44.35;;;;;;;6.08;64.94;100430.59;5071464;28;20051;-63
2021/11/02 10:20:33;;;;;;;93.72;44.38;;;;;;;6.26;64.55;100422.56;5070827;28;20396;-69
2021/11/02 10:23:38;;;;;;;82.05;41.80;;;;;;;6.45;64.49;100444.56;5069043;28;20660;-69
2021/11/02 10:26:19;;;;;;;90.70;43.55;;;;;;;6.45;63.79;100433.09;5038278;28;20039;-67
2021/11/02 10:28:59;;;;;;;88.88;43.63;;;;;;;6.61;63.58;100428.63;5092616;28;20467;-67
2021/11/02 10:31:57;;;;;;;86.00;44.33;;;;;;;6.64;63.50;100432.09;5093377;28;20035;-63
2021/11/02 10:34:29;;;;;;;84.22;40.78;;;;;;;6.57;63.16;100434.22;5092567;28;20032;-63
2021/11/02 10:37:06;;;;;;;79.82;42.88;;;;;;;6.33;63.58;100421.31;5069385;28;20029;-57
2021/11/02 10:39:42;;;;;;;82.28;42.33;;;;;;;6.13;64.66;100422.34;5051267;28;20036;-63
2021/11/02 10:42:20;;;;;;;83.57;41.97;;;;;;;6.14;64.68;100424.94;5047646;28;20041;-69
2021/11/02 10:44:49;;;;;;;89.60;44.00;;;;;;;6.00;64.36;100403.50;5036300;28;20033;-70
2021/11/02 10:47:21;;;;;;;84.55;41.53;;;;;;;6.14;64.78;100414.31;5054163;28;20024;-70
2021/11/02 10:49:58;;;;;;;84.57;43.85;;;;;;;6.17;64.36;100419.44;5052718;28;20024;-66
2021/11/02 10:52:31;;;;;;;81.45;42.90;;;;;;;5.97;64.62;100385.03;5071553;28;20059;-71
2021/11/02 10:55:21;;;;;;;77.20;41.65;;;;;;;6.18;64.17;100421.16;5072435;28;20036;-68
2021/11/02 10:58:17;;;;;;;78.15;39.00;;;;;;;6.22;64.40;100419.22;5054205;28;20047;-67
2021/11/02 11:00:46;;;;;;;78.18;40.72;;;;;;;5.97;64.01;100407.19;5070579;28;20033;-73
2021/11/02 11:03:15;;;;;;;82.63;42.97;;;;;;;5.87;65.21;100425.41;5070347;28;20054;-70
2021/11/02 11:05:55;;;;;;;86.28;43.15;;;;;;;5.85;65.70;100418.44;5071987;28;20457;-63
2021/11/02 11:08:28;;;;;;;83.43;41.53;;;;;;;5.98;64.39;100422.19;5053899;28;20090;-70
2021/11/02 11:10:57;;;;;;;85.70;44.42;;;;;;;5.88;64.88;100423.59;5053315;28;20033;-70
2021/11/02 11:13:26;;;;;;;89.88;45.30;;;;;;;5.87;65.02;100416.56;5071851;28;20028;-71
2021/11/02 11:15:57;;;;;;;82.55;45.13;;;;;;;5.74;66.55;100413.66;5071414;28;20047;-72
2021/11/02 11:18:33;;;;;;;87.25;46.60;;;;;;;5.46;65.54;100381.41;5053413;28;20036;-72
2021/11/02 11:21:00;;;;;;;87.85;45.13;;;;;;;5.74;65.74;100427.84;5070224;28;20365;-71
2021/11/02 11:23:26;;;;;;;81.20;43.67;;;;;;;5.46;65.52;100380.53;5031974;28;20024;-79
2021/11/02 11:26:00;;;;;;;85.63;44.97;;;;;;;5.62;66.46;100415.16;5049709;28;20105;-73
2021/11/02 11:28:33;;;;;;;84.13;41.17;;;;;;;5.66;66.58;100418.53;5070003;28;20520;-74
2021/11/02 11:30:59;;;;;;;91.75;46.63;;;;;;;5.64;65.43;100401.81;5072239;28;20468;-71
2021/11/02 11:33:28;;;;;;;89.85;44.35;;;;;;;5.60;65.50;100407.28;5074670;28;20032;-75
2021/11/02 11:36:01;;;;;;;94.55;46.17;;;;;;;5.53;66.40;100412.97;5072636;28;20056;-76
2021/11/02 11:38:39;;;;;;;88.43;41.65;;;;;;;5.44;66.63;100415.16;5091818;28;20547;-75
2021/11/02 11:41:09;;;;;;;94.40;48.72;;;;;;;5.34;66.79;100416.53;5073329;28;20119;-75
2021/11/02 11:43:35;;;;;;;96.03;47.45;;;;;;;5.18;68.14;100413.78;5072976;28;20436;-76
2021/11/02 11:46:03;;;;;;;92.20;45.60;;;;;;;4.94;67.77;100376.00;5091638;28;20533;-73
2021/11/02 11:48:31;;;;;;;93.43;47.13;;;;;;;5.24;67.85;100418.78;5073414;28;20523;-72
2021/11/02 11:51:00;;;;;;;92.53;47.00;;;;;;;4.97;68.30;100379.38;5091439;28;20042;-74
2021/11/02 11:53:27;;;;;;;90.03;43.67;;;;;;;5.27;67.66;100410.66;5071148;28;20055;-74
2021/11/02 11:56:23;;;;;;;89.10;44.33;;;;;;;5.09;68.08;100377.91;5090086;28;20039;-76
2021/11/02 11:58:54;;;;;;;90.57;44.03;;;;;;;5.25;68.40;100403.72;5076656;28;20065;-74
2021/11/02 12:01:52;;;;;;;94.07;46.15;;;;;;;5.38;67.98;100418.09;5054706;28;20371;-74
2021/11/02 12:04:42;;;;;;;85.72;42.58;;;;;;;5.47;68.48;100419.44;5090442;28;20435;-76
2021/11/02 12:07:23;;;;;;;96.63;44.47;;;;;;;5.43;67.02;100386.00;5072833;28;20032;-76
2021/11/02 12:09:49;;;;;;;97.32;44.03;;;;;;;5.50;67.41;100411.31;5057903;28;20107;-72
2021/11/02 12:12:15;;;;;;;95.72;45.55;;;;;;;5.50;67.48;100407.81;5090697;28;20032;-77
2021/11/02 12:14:44;;;;;;;85.60;40.97;;;;;;;5.42;67.90;100418.81;5089080;28;20587;-77
2021/11/02 12:17:16;;;;;;;81.97;39.88;;;;;;;5.53;67.42;100424.44;5056354;28;20037;-77
2021/11/02 12:19:51;;;;;;;85.55;41.25;;;;;;;5.40;68.23;100418.88;5090486;28;20135;-75
2021/11/02 12:22:25;;;;;;;85.85;42.58;;;;;;;5.45;67.78;100406.25;5067185;28;20020;-77
2021/11/02 12:25:02;;;;;;;91.80;43.85;;;;;;;5.24;68.26;100409.97;5059804;28;20036;-75
2021/11/02 12:27:36;;;;;;;86.57;41.40;;;;;;;5.27;68.14;100413.31;5042694;28;20484;-72
2021/11/02 12:30:11;;;;;;;87.35;42.00;;;;;;;5.27;68.16;100408.00;5042023;28;20031;-76
2021/11/02 12:32:40;;;;;;;91.45;42.92;;;;;;;4.83;68.83;100368.59;5059577;28;20480;-72
2021/11/02 12:35:21;;;;;;;92.32;44.38;;;;;;;5.04;70.31;100411.78;5060807;28;20025;-68
2021/11/02 12:37:56;;;;;;;84.90;42.38;;;;;;;4.98;69.51;100389.06;5043103;28;20040;-71
2021/11/02 12:40:26;;;;;;;89.40;43.45;;;;;;;5.09;68.85;100404.47;5060036;28;20429;-68
2021/11/02 12:42:52;;;;;;;87.00;42.60;;;;;;;5.09;69.69;100419.53;5041550;28;20025;-73
2021/11/02 12:45:20;;;;;;;86.63;40.42;;;;;;;4.94;68.63;100374.22;5057886;28;20035;-77
2021/11/02 12:47:48;;;;;;;82.68;39.50;;;;;;;5.15;68.81;100411.28;5047804;28;20025;-76
2021/11/02 12:50:16;;;;;;;89.78;41.30;;;;;;;4.79;69.63;100364.34;5075016;28;20025;-72
2021/11/02 12:52:44;;;;;;;88.90;40.90;;;;;;;5.00;69.45;100403.09;5068482;28;20224;-68
2021/11/02 12:55:16;;;;;;;92.43;39.83;;;;;;;5.02;68.91;100403.88;5072500;28;20082;-70
2021/11/02 12:57:47;;;;;;;87.07;41.70;;;;;;;4.76;70.54;100391.00;5073236;28;20036;-69
2021/11/02 13:00:21;;;;;;;92.63;42.83;;;;;;;4.85;70.53;100404.72;5072905;28;20060;-70
2021/11/02 13:03:08;;;;;;;89.35;40.80;;;;;;;4.78;70.82;100403.28;5073726;28;20036;-68
2021/11/02 13:05:37;;;;;;;79.60;39.20;;;;;;;4.83;70.48;100400.44;5073174;28;20074;-69
2021/11/02 13:08:09;;;;;;;89.47;41.83;;;;;;;4.84;70.49;100395.03;5072793;28;20082;-71
2021/11/02 13:10:39;;;;;;;78.55;37.17;;;;;;;4.83;70.54;100408.38;5038380;28;20078;-72
2021/11/02 13:13:15;;;;;;;87.47;41.13;;;;;;;4.78;70.70;100389.16;5038412;28;20032;-73
2021/11/02 13:16:07;;;;;;;84.63;40.60;;;;;;;4.93;69.96;100396.38;5037530;28;20045;-70
2021/11/02 13:18:39;;;;;;;85.25;40.10;;;;;;;4.87;71.24;100407.31;5047225;28;20040;-69
2021/11/02 13:21:19;;;;;;;80.63;37.92;;;;;;;5.07;69.76;100424.91;5069127;28;20097;-69
2021/11/02 13:23:49;;;;;;;83.07;38.80;;;;;;;4.93;69.92;100408.78;5067078;28;20099;-70
2021/11/02 13:26:24;;;;;;;81.07;39.53;;;;;;;4.72;70.58;100385.84;5053653;28;20040;-73
2021/11/02 13:28:50;;;;;;;80.13;36.33;;;;;;;4.80;70.11;100414.69;5054574;28;20086;-71
2021/11/02 13:31:30;;;;;;;81.00;38.35;;;;;;;4.66;71.52;100407.38;5037248;28;20040;-71
2021/11/02 13:34:00;;;;;;;76.95;37.00;;;;;;;4.64;71.98;100408.38;5054992;28;20035;-71
2021/11/02 13:36:25;;;;;;;83.40;40.45;;;;;;;4.72;71.28;100423.00;5070746;28;20472;-70
2021/11/02 13:38:58;;;;;;;87.50;40.15;;;;;;;4.56;71.42;100384.84;5072208;28;20090;-69
2021/11/02 13:41:26;;;;;;;84.20;38.08;;;;;;;4.72;72.15;100412.38;5054208;28;20025;-70
2021/11/02 13:43:56;;;;;;;78.90;34.30;;;;;;;4.92;71.46;100418.56;5072822;28;20103;-72
2021/11/02 13:46:25;;;;;;;79.43;38.35;;;;;;;4.94;70.50;100415.81;5054189;28;20076;-71
2021/11/02 13:48:53;;;;;;;82.68;36.28;;;;;;;4.84;71.31;100418.91;5072064;28;20028;-70
2021/11/02 13:51:19;;;;;;;74.72;36.10;;;;;;;4.83;71.63;100408.38;5071710;28;20056;-70
2021/11/02 13:53:45;;;;;;;77.18;36.47;;;;;;;4.87;70.90;100412.59;5072018;28;20100;-70
2021/11/02 13:56:23;;;;;;;80.75;38.90;;;;;;;4.85;70.47;100401.22;5036910;28;20025;-72
2021/11/02 13:58:50;;;;;;;84.65;39.58;;;;;;;4.73;70.75;100402.66;5069289;28;20070;-72
2021/11/02 14:01:31;;;;;;;78.90;36.47;;;;;;;4.80;71.23;100408.50;5053075;28;20064;-71
2021/11/02 14:04:18;;;;;;;75.63;34.17;;;;;;;4.66;71.83;100414.47;5072186;28;20060;-70
2021/11/02 14:06:53;;;;;;;75.13;35.42;;;;;;;4.80;70.33;100422.66;5069674;28;20090;-70
2021/11/02 14:09:29;;;;;;;77.38;36.80;;;;;;;4.70;71.22;100416.03;5036907;28;20025;-71
2021/11/02 14:11:58;;;;;;;78.90;37.45;;;;;;;4.54;71.67;100392.03;5054056;28;20048;-69
2021/11/02 14:14:30;;;;;;;72.03;34.50;;;;;;;4.60;71.38;100402.38;5054309;28;20472;-73
2021/11/02 14:16:57;;;;;;;71.03;31.30;;;;;;;4.64;70.95;100406.59;5069645;28;20396;-72
2021/11/02 14:19:38;;;;;;;78.47;37.28;;;;;;;4.59;71.45;100396.19;5071645;28;20130;-71
2021/11/02 14:22:05;;;;;;;79.57;36.17;;;;;;;4.55;72.25;100412.31;5033908;28;20115;-68
2021/11/02 14:24:36;;;;;;;79.32;37.33;;;;;;;4.54;72.11;100397.31;5053173;28;20123;-68
2021/11/02 14:27:04;;;;;;;79.38;38.88;;;;;;;4.57;71.42;100390.09;5054567;28;20032;-67
2021/11/02 14:29:52;;;;;;;81.97;34.63;;;;;;;4.67;71.39;100402.91;5069393;28;20039;-68
2021/11/02 14:32:36;;;;;;;78.07;35.83;;;;;;;4.56;71.56;100390.16;5068765;28;20102;-69
2021/11/02 14:35:09;;;;;;;68.20;29.58;;;;;;;4.34;71.66;100361.13;5058291;28;20086;-69
2021/11/02 14:37:49;;;;;;;74.25;32.70;;;;;;;4.58;71.40;100393.59;5063462;28;20051;-68
2021/11/02 14:40:32;;;;;;;75.93;36.03;;;;;;;4.49;72.70;100391.38;5070619;28;20167;-68
2021/11/02 14:43:14;;;;;;;71.78;35.50;;;;;;;4.41;73.43;100389.06;5066093;28;20033;-71
2021/11/02 14:45:44;;;;;;;77.20;35.40;;;;;;;4.36;73.39;100393.72;5041330;28;20457;-73
2021/11/02 14:48:24;;;;;;;83.40;39.30;;;;;;;4.51;73.16;100397.47;5034061;28;20045;-68
2021/11/02 14:50:57;;;;;;;86.45;38.67;;;;;;;4.55;72.65;100393.75;5017634;28;20131;-65
2021/11/02 14:53:30;;;;;;;86.25;39.88;;;;;;;4.64;72.86;100373.88;5033963;28;20031;-63
2021/11/02 14:56:11;;;;;;;80.65;35.88;;;;;;;4.65;71.86;100368.53;5051758;28;20029;-71
2021/11/02 14:58:40;;;;;;;86.43;36.97;;;;;;;4.59;72.80;100366.16;5051665;28;20441;-68
2021/11/02 15:01:17;;;;;;;77.40;32.83;;;;;;;4.54;71.98;100337.19;5050534;28;20111;-67
2021/11/02 15:03:51;;;;;;;89.45;40.00;;;;;;;4.72;71.70;100369.94;5052039;28;20043;-70
2021/11/02 15:06:18;;;;;;;89.18;39.25;;;;;;;4.64;72.25;100368.59;5050415;28;20041;-68
2021/11/02 15:08:45;;;;;;;90.40;39.97;;;;;;;4.55;72.24;100368.09;5038505;28;20029;-66
2021/11/02 15:11:13;;;;;;;92.05;40.33;;;;;;;4.65;72.68;100352.59;5067926;28;20098;-67
2021/11/02 15:13:40;;;;;;;85.88;37.90;;;;;;;4.64;72.93;100360.63;5065570;28;20119;-69
2021/11/02 15:16:06;;;;;;;65.00;26.75;;;;;;;4.82;72.02;100370.38;5061930;28;20515;-67
2021/11/02 15:18:38;;;;;;;90.78;39.45;;;;;;;4.65;71.66;100363.22;5063425;28;20037;-67
2021/11/02 15:21:03;;;;;;;66.72;26.23;;;;;;;4.65;71.77;100371.19;5054117;28;20052;-69
2021/11/02 15:23:40;;;;;;;78.63;35.35;;;;;;;4.44;72.70;100375.66;5071098;28;20028;-69
2021/11/02 15:26:06;;;;;;;83.03;35.47;;;;;;;4.31;73.21;100357.69;5068363;28;20047;-69
2021/11/02 15:28:40;;;;;;;83.25;37.17;;;;;;;4.34;73.65;100369.97;5070812;28;20036;-73
2021/11/02 15:31:06;;;;;;;81.80;33.65;;;;;;;4.37;73.26;100367.16;5070351;28;20392;-72
2021/11/02 15:33:33;;;;;;;77.28;33.00;;;;;;;4.34;73.12;100377.91;5053191;28;20033;-71
2021/11/02 15:36:12;;;;;;;83.07;34.95;;;;;;;4.44;73.20;100376.53;5071148;28;20024;-65
2021/11/02 15:38:38;;;;;;;82.88;34.97;;;;;;;4.38;73.37;100376.84;5070483;28;20055;-72
2021/11/02 15:41:22;;;;;;;75.95;33.30;;;;;;;4.41;72.81;100366.09;5071125;28;20032;-72
2021/11/02 15:43:56;;;;;;;77.97;34.10;;;;;;;4.42;73.61;100378.41;5070855;28;20060;-72
2021/11/02 15:46:24;;;;;;;74.63;32.35;;;;;;;4.44;72.72;100373.03;5071286;28;20044;-72
2021/11/02 15:48:55;;;;;;;77.65;36.08;;;;;;;4.36;73.11;100372.53;5071384;28;20028;-72
2021/11/02 15:51:21;;;;;;;86.95;35.60;;;;;;;4.10;73.58;100346.28;5071087;28;20029;-68
2021/11/02 15:53:47;;;;;;;76.35;34.42;;;;;;;4.40;72.96;100387.34;5052551;28;20036;-69
2021/11/02 15:56:12;;;;;;;69.85;32.08;;;;;;;4.40;72.70;100369.66;5053048;28;20025;-67
2021/11/02 15:58:38;;;;;;;77.78;33.83;;;;;;;4.34;72.82;100377.91;5072646;28;20118;-69
2021/11/02 16:01:04;;;;;;;77.07;33.92;;;;;;;4.09;74.04;100351.66;5052827;28;20060;-69
2021/11/02 16:03:33;;;;;;;76.75;32.90;;;;;;;4.19;73.61;100370.66;5052765;28;20036;-69
2021/11/02 16:06:02;;;;;;;71.22;31.42;;;;;;;4.28;73.84;100383.47;5053422;28;20028;-69
2021/11/02 16:08:29;;;;;;;75.45;32.17;;;;;;;4.24;74.22;100379.25;5068693;28;20021;-70
2021/11/02 16:11:04;;;;;;;69.78;33.70;;;;;;;4.36;73.80;100384.00;5070219;28;20533;-70
2021/11/02 16:13:29;;;;;;;73.97;33.65;;;;;;;4.19;73.70;100341.50;5069428;28;20021;-70
2021/11/02 16:15:58;;;;;;;70.45;31.27;;;;;;;4.48;73.13;100387.00;5070030;28;20044;-71
2021/11/02 16:18:25;;;;;;;74.32;33.85;;;;;;;4.58;72.40;100393.59;5069417;28;20040;-68
2021/11/02 16:20:53;;;;;;;71.68;32.60;;;;;;;4.54;72.51;100386.72;5070031;28;20033;-69
2021/11/02 16:23:22;;;;;;;70.72;32.47;;;;;;;4.28;72.63;100343.72;5069880;28;20036;-78
2021/11/02 16:26:18;;;;;;;61.65;27.98;;;;;;;4.38;72.42;100350.31;5053045;28;20376;-69
2021/11/02 16:28:44;;;;;;;66.40;30.52;;;;;;;4.51;71.86;100386.84;5070607;28;20381;-70
2021/11/02 16:31:21;;;;;;;62.40;29.58;;;;;;;4.49;72.02;100383.41;5070269;28;20029;-68
2021/11/02 16:33:47;;;;;;;64.13;30.90;;;;;;;4.24;72.95;100374.81;5069707;28;20123;-69
2021/11/02 16:36:29;;;;;;;61.78;29.60;;;;;;;4.45;72.17;100390.66;5070001;28;20178;-70
2021/11/02 16:38:57;;;;;;;66.68;31.25;;;;;;;4.35;72.42;100384.06;5069687;28;20050;-69
2021/11/02 16:41:31;;;;;;;70.65;30.20;;;;;;;4.37;72.34;100380.41;5051330;28;20152;-69